KONL/ONL METAR and TAF weather

Enter ICAO airport designator
Station Type Date Time Source
KONL METAR 2021/07/26 12:35 UTC NOAA

KONL 261235Z AUTO 19008KT 10SM CLR 19/17 A3002 RMK AO2 T01910169


Station Type Date Time Source
KONL Decoded METAR 2021/07/26 12:35 UTC NOAA

O'Neill / Baker Field, NE, United States (KONL) 42-28N 098-41W
Jul 26, 2021 - 08:35 AM EDT / 2021.07.26 1235 UTC
Wind: from the S (190 degrees) at 9 MPH (8 KT):0
Visibility: 10 mile(s):0
Sky conditions: clear
Temperature: 66.4 F (19.1 C)
Dew Point: 62.4 F (16.9 C)
Relative Humidity: 87%
Pressure (altimeter): 30.02 in. Hg (1016 hPa)
ob: KONL 261235Z AUTO 19008KT 10SM CLR 19/17 A3002 RMK AO2 T01910169
cycle: 12

Station Type Date Time Source
KONL TAF UTC NOAA

Error!

Example: see airport list